createdAt,value
2024-02-19T00:00:06.666Z,102624.25
2024-02-19T00:02:39.150Z,102623.28
2024-02-19T00:05:07.238Z,102626.81
2024-02-19T00:07:33.851Z,102631.75
2024-02-19T00:10:00.789Z,102643.63
2024-02-19T00:12:27.393Z,102635.16
2024-02-19T00:14:54.009Z,102637.53
2024-02-19T00:17:20.537Z,102634.56
2024-02-19T00:19:47.129Z,102631.03
2024-02-19T00:22:13.726Z,102629.22
2024-02-19T00:24:40.564Z,102627.25
2024-02-19T00:27:08.353Z,102634.44
2024-02-19T00:29:34.974Z,102638.00
2024-02-19T00:32:01.568Z,102646.75
2024-02-19T00:34:28.171Z,102644.06
2024-02-19T00:36:55.896Z,102643.38
2024-02-19T00:39:22.439Z,102641.94
2024-02-19T00:41:49.032Z,102662.44
2024-02-19T00:44:15.615Z,102662.56
2024-02-19T00:46:42.189Z,102650.13
2024-02-19T00:49:08.870Z,102666.22
2024-02-19T00:51:36.308Z,102673.59
2024-02-19T00:54:02.945Z,102679.81
2024-02-19T00:56:29.488Z,102671.88
2024-02-19T00:58:56.068Z,102654.22
2024-02-19T01:01:22.661Z,102658.75
2024-02-19T01:03:49.334Z,102669.34
2024-02-19T01:06:16.093Z,102655.50
2024-02-19T01:08:43.437Z,102661.72
2024-02-19T01:11:11.673Z,102659.03
2024-02-19T01:13:39.038Z,102654.78
2024-02-19T01:16:05.741Z,102661.28
2024-02-19T01:18:32.341Z,102657.47
2024-02-19T01:20:58.966Z,102648.69
2024-02-19T01:23:25.586Z,102654.34
2024-02-19T01:25:53.490Z,102650.53
2024-02-19T01:28:21.198Z,102657.59
2024-02-19T01:30:48.102Z,102653.66
2024-02-19T01:33:14.912Z,102657.91
2024-02-19T01:35:41.419Z,102660.75
2024-02-19T01:38:08.863Z,102653.06
2024-02-19T01:40:35.383Z,102656.63
2024-02-19T01:43:06.657Z,102663.44
2024-02-19T01:45:33.820Z,102654.78
2024-02-19T01:48:01.484Z,102664.53
2024-02-19T01:50:36.249Z,102662.00
2024-02-19T01:53:06.007Z,102658.88
2024-02-19T01:55:34.797Z,102660.00
2024-02-19T01:58:02.306Z,102654.06
2024-02-19T02:00:35.977Z,102646.28
2024-02-19T02:03:04.158Z,102643.59
2024-02-19T02:05:31.005Z,102643.75
2024-02-19T02:07:58.490Z,102654.34
2024-02-19T02:10:25.193Z,102649.69
2024-02-19T02:12:51.810Z,102663.66
2024-02-19T02:15:18.459Z,102672.13
2024-02-19T02:17:45.528Z,102688.13
2024-02-19T02:20:12.547Z,102681.75
2024-02-19T02:22:39.872Z,102678.94
2024-02-19T02:25:06.886Z,102671.03
2024-02-19T02:27:33.571Z,102678.22
2024-02-19T02:30:00.346Z,102675.53
2024-02-19T02:32:26.905Z,102674.13
2024-02-19T02:34:53.532Z,102666.75
2024-02-19T02:37:21.845Z,102657.44
2024-02-19T02:39:48.468Z,102656.59
2024-02-19T02:42:14.973Z,102650.53
2024-02-19T02:44:41.514Z,102659.56
2024-02-19T02:47:08.018Z,102663.13
2024-02-19T02:49:34.662Z,102652.66
2024-02-19T02:52:01.306Z,102656.19
2024-02-19T02:54:27.876Z,102652.38
2024-02-19T02:56:54.388Z,102651.22
2024-02-19T02:59:20.947Z,102645.44
2024-02-19T03:01:47.642Z,102645.16
2024-02-19T03:04:14.355Z,102651.81
2024-02-19T03:06:41.062Z,102648.13
2024-02-19T03:09:07.679Z,102645.59
2024-02-19T03:11:34.239Z,102640.38
2024-02-19T03:14:00.908Z,102638.38
2024-02-19T03:16:27.522Z,102639.94
2024-02-19T03:18:54.871Z,102646.16
2024-02-19T03:21:22.026Z,102640.66
2024-02-19T03:23:53.139Z,102641.22
2024-02-19T03:26:37.411Z,102633.00
2024-02-19T03:29:15.456Z,102633.88
2024-02-19T03:31:43.805Z,102637.53
2024-02-19T03:34:11.140Z,102632.03
2024-02-19T03:36:38.140Z,102631.19
2024-02-19T03:39:05.801Z,102633.72
2024-02-19T03:41:33.193Z,102632.88
2024-02-19T03:44:00.080Z,102626.78
2024-02-19T03:46:27.134Z,102634.00
2024-02-19T03:48:56.404Z,102629.47
2024-02-19T03:51:23.487Z,102624.25
2024-02-19T03:53:50.160Z,102633.16
2024-02-19T03:56:16.813Z,102625.81
2024-02-19T03:58:43.413Z,102625.94
2024-02-19T04:01:10.168Z,102626.94
2024-02-19T04:03:36.980Z,102621.56
2024-02-19T04:06:03.804Z,102621.56
2024-02-19T04:08:33.080Z,102623.16
2024-02-19T04:10:59.654Z,102619.72
2024-02-19T04:13:26.220Z,102620.00
2024-02-19T04:15:52.809Z,102623.69
2024-02-19T04:18:19.543Z,102615.63
2024-02-19T04:20:46.136Z,102620.00
2024-02-19T04:23:12.748Z,102626.22
2024-02-19T04:25:39.338Z,102629.78
2024-02-19T04:28:06.364Z,102627.50
2024-02-19T04:30:32.902Z,102629.06
2024-02-19T04:32:59.939Z,102629.06
2024-02-19T04:35:26.539Z,102629.91
2024-02-19T04:37:53.148Z,102632.59
2024-02-19T04:40:19.775Z,102635.16
2024-02-19T04:42:46.414Z,102631.31
2024-02-19T04:45:12.990Z,102633.72
2024-02-19T04:47:39.536Z,102635.69
2024-02-19T04:50:06.841Z,102635.44
2024-02-19T04:52:33.589Z,102630.75
2024-02-19T04:55:00.298Z,102627.22
2024-02-19T04:57:26.953Z,102635.16
2024-02-19T04:59:53.469Z,102633.16
2024-02-19T05:02:20.027Z,102633.59
2024-02-19T05:04:46.818Z,102622.72
2024-02-19T05:07:13.575Z,102614.50
2024-02-19T05:09:40.786Z,102623.28
2024-02-19T05:12:07.469Z,102611.53
2024-02-19T05:14:34.004Z,102606.19
2024-02-19T05:17:01.676Z,102614.50
2024-02-19T05:19:28.847Z,102623.41
2024-02-19T05:21:55.890Z,102615.50
2024-02-19T05:24:22.533Z,102622.84
2024-02-19T05:26:49.325Z,102630.06
2024-02-19T05:29:15.871Z,102620.03
2024-02-19T05:31:42.959Z,102621.72
2024-02-19T05:34:09.779Z,102625.81
2024-02-19T05:36:36.569Z,102627.50
2024-02-19T05:39:03.848Z,102619.44
2024-02-19T05:41:30.361Z,102615.91
2024-02-19T05:43:57.319Z,102628.34
2024-02-19T05:46:24.285Z,102621.28
2024-02-19T05:48:51.946Z,102619.19
2024-02-19T05:51:18.840Z,102619.88
2024-02-19T05:53:45.487Z,102623.72
2024-02-19T05:56:12.028Z,102622.72
2024-02-19T05:58:41.891Z,102619.03
2024-02-19T06:01:09.034Z,102610.28
2024-02-19T06:03:36.277Z,102607.44
2024-02-19T06:06:04.298Z,102603.75
2024-02-19T06:08:31.327Z,102606.31
2024-02-19T06:10:58.770Z,102610.97
2024-02-19T06:13:26.197Z,102601.22
2024-02-19T06:15:53.301Z,102612.13
2024-02-19T06:18:20.611Z,102597.84
2024-02-19T06:20:48.669Z,102602.22
2024-02-19T06:23:15.881Z,102590.91
2024-02-19T06:25:45.635Z,102590.75
2024-02-19T06:28:12.433Z,102588.78
2024-02-19T06:30:39.638Z,102584.25
2024-02-19T06:33:06.735Z,102590.63
2024-02-19T06:35:33.494Z,102589.06
2024-02-19T06:38:00.158Z,102596.13
2024-02-19T06:40:27.863Z,102589.06
2024-02-19T06:42:55.519Z,102590.06
2024-02-19T06:45:22.603Z,102591.59
2024-02-19T06:47:49.289Z,102595.16
2024-02-19T06:50:15.946Z,102583.41
2024-02-19T06:52:46.908Z,102600.38
2024-02-19T06:55:15.486Z,102603.91
2024-02-19T06:57:42.453Z,102602.91
2024-02-19T07:00:13.119Z,102612.97
2024-02-19T07:02:40.333Z,102619.34
2024-02-19T07:05:08.427Z,102611.97
2024-02-19T07:07:36.420Z,102604.75
2024-02-19T07:10:05.270Z,102606.44
2024-02-19T07:12:34.826Z,102605.59
2024-02-19T07:15:01.523Z,102603.75
2024-02-19T07:17:30.478Z,102589.34
2024-02-19T07:19:57.176Z,102598.81
2024-02-19T07:22:23.952Z,102601.34
2024-02-19T07:24:53.246Z,102596.97
2024-02-19T07:27:23.496Z,102604.88
2024-02-19T07:29:51.497Z,102588.78
2024-02-19T07:32:18.068Z,102599.41
2024-02-19T07:34:44.777Z,102599.41
2024-02-19T07:37:11.470Z,102593.88
2024-02-19T07:39:42.707Z,102604.47
2024-02-19T07:42:10.128Z,102603.50
2024-02-19T07:44:36.690Z,102600.38
2024-02-19T07:47:04.345Z,102599.38
2024-02-19T07:49:31.403Z,102607.72
2024-02-19T07:51:58.248Z,102604.91
2024-02-19T07:54:24.786Z,102612.53
2024-02-19T07:56:51.346Z,102610.41
2024-02-19T07:59:17.972Z,102610.25
2024-02-19T08:01:44.638Z,102613.09
2024-02-19T08:04:11.354Z,102624.69
2024-02-19T08:06:38.089Z,102631.59
2024-02-19T08:09:06.977Z,102633.16
2024-02-19T08:11:33.658Z,102634.03
2024-02-19T08:14:00.302Z,102637.69
2024-02-19T08:16:28.693Z,102638.81
2024-02-19T08:18:55.871Z,102637.13
2024-02-19T08:21:22.503Z,102635.88
2024-02-19T08:23:49.087Z,102640.09
2024-02-19T08:26:15.708Z,102631.19
2024-02-19T08:28:42.300Z,102637.72
2024-02-19T08:31:08.889Z,102638.41
2024-02-19T08:33:35.564Z,102640.09
2024-02-19T08:36:02.628Z,102630.34
2024-02-19T08:38:29.652Z,102628.38
2024-02-19T08:40:56.307Z,102631.75
2024-02-19T08:43:22.934Z,102630.91
2024-02-19T08:45:49.850Z,102631.47
2024-02-19T08:48:16.615Z,102629.78
2024-02-19T08:50:44.593Z,102637.69
2024-02-19T08:53:11.134Z,102624.97
2024-02-19T08:55:37.713Z,102629.22
2024-02-19T08:58:04.566Z,102625.13
2024-02-19T09:00:33.809Z,102623.97
2024-02-19T09:03:00.808Z,102616.75
2024-02-19T09:05:28.313Z,102622.72
2024-02-19T09:07:55.038Z,102620.72
2024-02-19T09:10:21.876Z,102622.00
2024-02-19T09:12:48.439Z,102620.72
2024-02-19T09:15:15.096Z,102621.31
2024-02-19T09:17:41.724Z,102622.41
2024-02-19T09:20:08.818Z,102629.06
2024-02-19T09:22:35.603Z,102629.78
2024-02-19T09:25:02.210Z,102631.34
2024-02-19T09:27:28.785Z,102625.69
2024-02-19T09:29:57.357Z,102615.63
2024-02-19T09:32:24.160Z,102626.81
2024-02-19T09:34:51.070Z,102617.47
2024-02-19T09:37:17.720Z,102620.56
2024-02-19T09:39:50.708Z,102619.47
2024-02-19T09:42:17.933Z,102615.50
2024-02-19T09:44:44.789Z,102617.91
2024-02-19T09:47:16.404Z,102614.50
2024-02-19T09:49:43.844Z,102606.69
2024-02-19T09:52:12.942Z,102612.25
2024-02-19T09:54:39.602Z,102598.22
2024-02-19T09:57:11.649Z,102602.63
2024-02-19T09:59:41.717Z,102592.44
2024-02-19T10:02:08.452Z,102595.25
2024-02-19T10:04:36.489Z,102589.16
2024-02-19T10:07:03.467Z,102587.03
2024-02-19T10:09:30.654Z,102592.94
2024-02-19T10:12:01.213Z,102578.94
2024-02-19T10:14:27.949Z,102580.50
2024-02-19T10:16:56.326Z,102575.81
2024-02-19T10:19:23.207Z,102569.72
2024-02-19T10:21:51.542Z,102569.13
2024-02-19T10:24:18.766Z,102569.41
2024-02-19T10:26:51.266Z,102566.56
2024-02-19T10:29:19.517Z,102559.66
2024-02-19T10:31:46.141Z,102560.34
2024-02-19T10:34:15.845Z,102561.91
2024-02-19T10:36:45.521Z,102554.53
2024-02-19T10:39:12.371Z,102552.94
2024-02-19T10:41:40.080Z,102542.75
2024-02-19T10:44:07.394Z,102537.59
2024-02-19T10:46:34.669Z,102540.72
2024-02-19T10:49:01.521Z,102536.91
2024-02-19T10:51:30.183Z,102538.47
2024-02-19T10:54:05.292Z,102519.84
2024-02-19T10:56:44.459Z,102523.94
2024-02-19T10:59:12.534Z,102524.34
2024-02-19T11:01:42.530Z,102524.88
2024-02-19T11:04:19.208Z,102518.81
2024-02-19T11:06:57.492Z,102522.94
2024-02-19T11:09:35.075Z,102521.47
2024-02-19T11:12:03.546Z,102531.13
2024-02-19T11:14:33.493Z,102531.72
2024-02-19T11:17:01.963Z,102537.00
2024-02-19T11:19:30.143Z,102517.31
2024-02-19T11:22:11.197Z,102524.41
2024-02-19T11:24:40.379Z,102526.81
2024-02-19T11:27:11.400Z,102526.81
2024-02-19T11:29:46.771Z,102524.69
2024-02-19T11:32:20.727Z,102527.16
2024-02-19T11:34:49.033Z,102514.84
2024-02-19T11:37:15.811Z,102509.16
2024-02-19T11:39:44.547Z,102498.53
2024-02-19T11:42:15.997Z,102494.78
2024-02-19T11:44:44.516Z,102486.13
2024-02-19T11:47:11.578Z,102488.78
2024-02-19T11:49:38.637Z,102486.94
2024-02-19T11:52:11.774Z,102497.97
2024-02-19T11:54:39.979Z,102502.13
2024-02-19T11:57:09.526Z,102501.56
2024-02-19T11:59:38.974Z,102495.63
2024-02-19T12:02:10.228Z,102495.09
2024-02-19T12:04:38.441Z,102498.94
2024-02-19T12:07:06.127Z,102494.16
2024-02-19T12:09:33.086Z,102502.50
2024-02-19T12:11:59.886Z,102501.09
2024-02-19T12:14:26.692Z,102495.59
2024-02-19T12:16:55.446Z,102502.00
2024-02-19T12:19:22.363Z,102499.97
2024-02-19T12:21:49.843Z,102492.91
2024-02-19T12:24:16.363Z,102485.97
2024-02-19T12:26:45.537Z,102479.66
2024-02-19T12:29:13.659Z,102489.88
2024-02-19T12:31:40.361Z,102488.03
2024-02-19T12:34:07.741Z,102482.19
2024-02-19T12:36:34.811Z,102482.75
2024-02-19T12:39:02.424Z,102490.41
2024-02-19T12:41:29.209Z,102471.03
2024-02-19T12:43:57.184Z,102477.03
2024-02-19T12:46:25.430Z,102469.66
2024-02-19T12:48:52.376Z,102474.56
2024-02-19T12:51:19.291Z,102466.06
2024-02-19T12:53:46.038Z,102468.91
2024-02-19T12:56:12.694Z,102468.41
2024-02-19T12:58:39.292Z,102464.72
2024-02-19T13:01:13.257Z,102465.84
2024-02-19T13:03:47.127Z,102461.63
2024-02-19T13:06:15.973Z,102468.69
2024-02-19T13:08:45.417Z,102465.28
2024-02-19T13:11:12.653Z,102468.16
2024-02-19T13:13:40.014Z,102463.91
2024-02-19T13:16:09.399Z,102463.63
2024-02-19T13:18:37.336Z,102463.50
2024-02-19T13:21:04.889Z,102453.03
2024-02-19T13:23:31.565Z,102459.03
2024-02-19T13:25:58.181Z,102458.00
2024-02-19T13:28:24.874Z,102457.19
2024-02-19T13:30:51.529Z,102454.66
2024-02-19T13:33:19.400Z,102450.97
2024-02-19T13:35:46.100Z,102443.91
2024-02-19T13:38:13.573Z,102440.88
2024-02-19T13:40:40.278Z,102449.06
2024-02-19T13:43:07.023Z,102439.56
2024-02-19T13:45:54.337Z,102446.25
2024-02-19T13:48:25.178Z,102444.09
2024-02-19T13:50:59.552Z,102436.59
2024-02-19T13:53:28.851Z,102438.97
2024-02-19T13:55:57.818Z,102441.81
2024-02-19T13:58:26.470Z,102442.50
2024-02-19T14:00:55.381Z,102442.19
2024-02-19T14:03:22.716Z,102446.47
2024-02-19T14:05:49.895Z,102442.94
2024-02-19T14:08:18.877Z,102437.13
2024-02-19T14:10:48.166Z,102431.75
2024-02-19T14:13:16.338Z,102434.47
2024-02-19T14:15:42.909Z,102435.19
2024-02-19T14:18:09.530Z,102435.31
2024-02-19T14:20:36.121Z,102437.72
2024-02-19T14:23:03.581Z,102437.44
2024-02-19T14:25:33.997Z,102427.66
2024-02-19T14:28:01.912Z,102426.81
2024-02-19T14:30:28.727Z,102420.59
2024-02-19T14:32:55.504Z,102419.75
2024-02-19T14:35:22.348Z,102417.06
2024-02-19T14:37:49.367Z,102424.84
2024-02-19T14:40:19.147Z,102425.53
2024-02-19T14:42:46.801Z,102426.53
2024-02-19T14:45:14.214Z,102429.91
2024-02-19T14:47:46.893Z,102427.66
2024-02-19T14:50:14.655Z,102427.66
2024-02-19T14:52:41.946Z,102425.84
2024-02-19T14:55:12.195Z,102430.22
2024-02-19T14:57:40.728Z,102428.38
2024-02-19T15:00:11.284Z,102423.16
2024-02-19T15:02:42.152Z,102432.06
2024-02-19T15:05:09.754Z,102429.56
2024-02-19T15:07:36.865Z,102430.03
2024-02-19T15:10:04.783Z,102435.03
2024-02-19T15:12:31.623Z,102425.31
2024-02-19T15:14:58.788Z,102432.28
2024-02-19T15:17:26.913Z,102429.38
2024-02-19T15:19:54.110Z,102426.69
2024-02-19T15:22:20.960Z,102424.69
2024-02-19T15:24:47.724Z,102427.97
2024-02-19T15:27:14.443Z,102428.94
2024-02-19T15:29:41.005Z,102424.75
2024-02-19T15:32:08.865Z,102428.44
2024-02-19T15:34:35.584Z,102434.78
2024-02-19T15:37:02.318Z,102438.47
2024-02-19T15:39:30.917Z,102431.69
2024-02-19T15:41:57.515Z,102428.44
2024-02-19T15:44:24.609Z,102425.22
2024-02-19T15:46:51.160Z,102430.75
2024-02-19T15:49:17.829Z,102436.28
2024-02-19T15:51:44.526Z,102432.59
2024-02-19T15:54:11.677Z,102430.75
2024-02-19T15:56:38.491Z,102437.97
2024-02-19T15:59:05.077Z,102433.44
2024-02-19T16:01:31.701Z,102446.16
2024-02-19T16:03:58.455Z,102443.78
2024-02-19T16:06:29.319Z,102459.06
2024-02-19T16:08:57.481Z,102452.13
2024-02-19T16:11:24.276Z,102462.94
2024-02-19T16:13:51.842Z,102463.22
2024-02-19T16:16:19.667Z,102470.81
2024-02-19T16:18:47.093Z,102465.16
2024-02-19T16:21:14.395Z,102456.25
2024-02-19T16:23:42.414Z,102463.59
2024-02-19T16:26:10.853Z,102459.25
2024-02-19T16:28:41.862Z,102467.75
2024-02-19T16:31:11.696Z,102471.16
2024-02-19T16:33:40.109Z,102475.09
2024-02-19T16:36:09.148Z,102478.22
2024-02-19T16:38:38.705Z,102479.63
2024-02-19T16:41:06.931Z,102479.63
2024-02-19T16:43:36.656Z,102474.84
2024-02-19T16:46:04.354Z,102477.66
2024-02-19T16:48:37.995Z,102480.50
2024-02-19T16:51:13.761Z,102485.72
2024-02-19T16:53:41.814Z,102489.84
2024-02-19T16:56:10.648Z,102489.84
2024-02-19T16:58:37.319Z,102500.84
2024-02-19T17:01:06.203Z,102499.03
2024-02-19T17:03:33.318Z,102507.78
2024-02-19T17:06:00.228Z,102512.03
2024-02-19T17:08:28.007Z,102511.63
2024-02-19T17:10:56.365Z,102513.03
2024-02-19T17:13:23.389Z,102518.78
2024-02-19T17:15:50.444Z,102523.31
2024-02-19T17:18:18.004Z,102528.00
2024-02-19T17:20:44.853Z,102534.63
2024-02-19T17:23:17.140Z,102532.22
2024-02-19T17:25:43.934Z,102545.22
2024-02-19T17:28:10.624Z,102543.56
2024-02-19T17:30:37.638Z,102544.81
2024-02-19T17:33:04.577Z,102553.16
2024-02-19T17:35:31.513Z,102551.03
2024-02-19T17:37:58.234Z,102553.56
2024-02-19T17:40:24.983Z,102561.09
2024-02-19T17:42:52.139Z,102566.72
2024-02-19T17:45:18.905Z,102557.09
2024-02-19T17:47:49.174Z,102560.34
2024-02-19T17:50:16.070Z,102566.44
2024-02-19T17:52:45.790Z,102563.03
2024-02-19T17:55:12.647Z,102573.50
2024-02-19T17:57:40.176Z,102571.81
2024-02-19T18:00:10.096Z,102577.47
2024-02-19T18:02:39.554Z,102573.38
2024-02-19T18:05:06.586Z,102583.09
2024-02-19T18:07:33.179Z,102574.34
2024-02-19T18:09:59.830Z,102576.75
2024-02-19T18:12:26.404Z,102583.94
2024-02-19T18:14:53.008Z,102591.16
2024-02-19T18:17:20.619Z,102586.47
2024-02-19T18:19:48.767Z,102587.31
2024-02-19T18:22:15.432Z,102596.38
2024-02-19T18:24:41.997Z,102593.13
2024-02-19T18:27:09.521Z,102594.94
2024-02-19T18:29:36.711Z,102598.47
2024-02-19T18:32:03.892Z,102593.84
2024-02-19T18:34:35.430Z,102602.75
2024-02-19T18:37:03.158Z,102604.84
2024-02-19T18:39:32.638Z,102597.78
2024-02-19T18:41:59.515Z,102604.28
2024-02-19T18:44:26.148Z,102602.41
2024-02-19T18:46:52.661Z,102603.13
2024-02-19T18:49:21.664Z,102604.84
2024-02-19T18:51:49.452Z,102607.53
2024-02-19T18:54:18.886Z,102608.94
2024-02-19T18:56:46.073Z,102615.00
2024-02-19T18:59:12.585Z,102626.00
2024-02-19T19:01:39.616Z,102618.41
2024-02-19T19:04:06.379Z,102620.09
2024-02-19T19:06:33.289Z,102625.59
2024-02-19T19:09:06.302Z,102622.78
2024-02-19T19:11:35.315Z,102618.28
2024-02-19T19:14:02.472Z,102625.59
2024-02-19T19:16:29.634Z,102628.28
2024-02-19T19:18:58.137Z,102624.91
2024-02-19T19:21:24.907Z,102630.84
2024-02-19T19:23:51.512Z,102630.84
2024-02-19T19:26:18.165Z,102644.97
2024-02-19T19:28:44.755Z,102633.94
2024-02-19T19:31:11.391Z,102639.44
2024-02-19T19:33:38.162Z,102627.16
2024-02-19T19:36:05.546Z,102637.44
2024-02-19T19:38:32.145Z,102646.22
2024-02-19T19:40:58.741Z,102641.09
2024-02-19T19:43:25.384Z,102638.97
2024-02-19T19:45:54.265Z,102641.09
2024-02-19T19:48:28.918Z,102646.06
2024-02-19T19:50:57.010Z,102628.00
2024-02-19T19:53:24.290Z,102638.41
2024-02-19T19:55:57.719Z,102641.25
2024-02-19T19:58:31.982Z,102642.22
2024-02-19T20:01:00.514Z,102646.63
2024-02-19T20:03:27.365Z,102645.63
2024-02-19T20:05:54.380Z,102652.28
2024-02-19T20:08:21.227Z,102649.47
2024-02-19T20:10:48.285Z,102659.63
2024-02-19T20:13:15.194Z,102659.88
2024-02-19T20:15:41.998Z,102660.47
2024-02-19T20:18:09.667Z,102666.28
2024-02-19T20:20:36.555Z,102660.47
2024-02-19T20:23:03.357Z,102659.75
2024-02-19T20:25:30.876Z,102663.16
2024-02-19T20:27:57.508Z,102670.09
2024-02-19T20:30:24.163Z,102671.72
2024-02-19T20:32:52.591Z,102671.88
2024-02-19T20:35:19.593Z,102670.88
2024-02-19T20:37:46.134Z,102671.72
2024-02-19T20:40:13.494Z,102683.19
2024-02-19T20:42:40.269Z,102672.19
2024-02-19T20:45:07.296Z,102676.00
2024-02-19T20:47:33.915Z,102684.78
2024-02-19T20:50:01.091Z,102685.88
2024-02-19T20:52:28.267Z,102685.47
2024-02-19T20:54:56.171Z,102696.09
2024-02-19T20:57:25.859Z,102686.06
2024-02-19T20:59:53.365Z,102698.38
2024-02-19T21:02:20.112Z,102698.38
2024-02-19T21:04:46.845Z,102696.66
2024-02-19T21:07:13.557Z,102697.78
2024-02-19T21:09:41.641Z,102694.50
2024-02-19T21:12:08.317Z,102700.00
2024-02-19T21:14:35.713Z,102704.66
2024-02-19T21:17:03.872Z,102700.28
2024-02-19T21:19:31.985Z,102701.25
2024-02-19T21:21:58.939Z,102694.09
2024-02-19T21:24:25.626Z,102687.97
2024-02-19T21:26:52.208Z,102691.50
2024-02-19T21:29:18.932Z,102695.19
2024-02-19T21:31:45.428Z,102693.50
2024-02-19T21:34:13.233Z,102689.97
2024-02-19T21:36:40.098Z,102698.34
2024-02-19T21:39:06.987Z,102693.97
2024-02-19T21:41:34.925Z,102694.97
2024-02-19T21:44:01.669Z,102704.88
2024-02-19T21:46:28.406Z,102717.53
2024-02-19T21:48:56.394Z,102719.38
2024-02-19T21:51:23.613Z,102720.53
2024-02-19T21:53:50.208Z,102723.19
2024-02-19T21:56:16.827Z,102720.63
2024-02-19T21:58:43.347Z,102718.94
2024-02-19T22:01:10.037Z,102722.63
2024-02-19T22:03:36.744Z,102719.19
2024-02-19T22:06:05.157Z,102726.66
2024-02-19T22:08:31.868Z,102730.59
2024-02-19T22:10:58.433Z,102731.56
2024-02-19T22:13:25.136Z,102729.03
2024-02-19T22:15:55.083Z,102729.88
2024-02-19T22:18:23.289Z,102737.78
2024-02-19T22:20:49.940Z,102734.13
2024-02-19T22:23:16.617Z,102740.47
2024-02-19T22:25:43.227Z,102745.13
2024-02-19T22:28:09.833Z,102745.38
2024-02-19T22:30:36.408Z,102746.38
2024-02-19T22:33:03.088Z,102742.09
2024-02-19T22:35:30.026Z,102743.22
2024-02-19T22:37:56.606Z,102744.44
2024-02-19T22:40:23.329Z,102740.94
2024-02-19T22:42:49.932Z,102734.84
2024-02-19T22:45:16.494Z,102736.41
2024-02-19T22:47:43.121Z,102731.19
2024-02-19T22:50:09.764Z,102731.91
2024-02-19T22:52:37.203Z,102738.13
2024-02-19T22:55:07.272Z,102739.09
2024-02-19T22:57:33.852Z,102743.59
2024-02-19T23:00:00.783Z,102743.75
2024-02-19T23:02:27.358Z,102742.06
2024-02-19T23:04:54.061Z,102741.91
2024-02-19T23:07:20.662Z,102740.06
2024-02-19T23:09:47.240Z,102744.44
2024-02-19T23:12:14.072Z,102751.78
2024-02-19T23:14:40.634Z,102742.91
2024-02-19T23:17:07.329Z,102747.41
2024-02-19T23:19:33.931Z,102748.38
2024-02-19T23:22:00.511Z,102751.34
2024-02-19T23:24:27.168Z,102743.28
2024-02-19T23:26:53.673Z,102746.22
2024-02-19T23:29:20.433Z,102744.66
2024-02-19T23:31:47.481Z,102758.06
2024-02-19T23:34:14.365Z,102746.47
2024-02-19T23:36:41.296Z,102749.31
2024-02-19T23:39:08.007Z,102745.88
2024-02-19T23:41:34.559Z,102745.88
2024-02-19T23:44:01.122Z,102748.72
2024-02-19T23:46:27.695Z,102747.25
2024-02-19T23:48:56.477Z,102748.38
2024-02-19T23:51:23.201Z,102745.81
2024-02-19T23:53:49.866Z,102744.13
2024-02-19T23:56:16.490Z,102753.13
2024-02-19T23:58:43.190Z,102756.78
